Time;durP1;ratioP1;P1;durP2;ratioP2;P2;SDS_P1;SDS_P2;PMS_P1;PMS_P2;Temp;Humidity;BMP_temperature;BMP_pressure;BME280_temperature;BME280_humidity;BME280_pressure;Samples;Min_cycle;Max_cycle;Signal;HPM_P1;HPM_P2
2022/02/26 00:02:24;;;;;;;2.78;0.75;;;5.20;99.90;;;;;;4432542;32;20060;-62
2022/02/26 00:04:49;;;;;;;1.00;0.85;;;5.20;99.90;;;;;;4438167;32;20426;-63
2022/02/26 00:07:15;;;;;;;24.60;1.58;;;5.20;99.90;;;;;;4433403;32;20065;-63
2022/02/26 00:09:40;;;;;;;2.10;1.30;;;5.20;99.90;;;;;;4436197;32;20089;-63
2022/02/26 00:12:06;;;;;;;0.70;0.70;;;5.20;99.90;;;;;;4442691;32;20158;-62
2022/02/26 00:14:31;;;;;;;0.40;0.40;;;5.30;99.90;;;;;;4443711;32;20077;-62
2022/02/26 00:16:57;;;;;;;1.15;1.05;;;5.20;99.90;;;;;;4443368;32;20065;-63
2022/02/26 00:19:22;;;;;;;3.60;0.93;;;5.20;99.90;;;;;;4441376;32;20080;-62
2022/02/26 00:21:48;;;;;;;0.68;0.68;;;5.10;99.90;;;;;;4443398;32;20068;-63
2022/02/26 00:24:14;;;;;;;0.40;0.40;;;5.10;99.90;;;;;;4442899;32;20073;-62
2022/02/26 00:26:39;;;;;;;1.98;0.95;;;5.10;99.90;;;;;;4443031;32;20469;-62
2022/02/26 00:29:05;;;;;;;1.45;1.23;;;5.10;99.90;;;;;;4442676;32;20072;-62
2022/02/26 00:31:30;;;;;;;0.40;0.40;;;5.00;99.90;;;;;;4448990;32;20120;-62
2022/02/26 00:33:56;;;;;;;0.82;0.82;;;5.00;99.90;;;;;;4438191;32;20819;-63
2022/02/26 00:36:21;;;;;;;9.82;1.05;;;5.00;99.90;;;;;;4440423;32;20157;-63
2022/02/26 00:38:47;;;;;;;0.88;0.85;;;5.00;99.90;;;;;;4442941;32;20115;-63
2022/02/26 00:41:12;;;;;;;1.65;1.15;;;5.10;99.90;;;;;;4443243;32;20057;-63
2022/02/26 00:43:38;;;;;;;2.35;0.85;;;5.00;99.90;;;;;;4442541;32;20061;-63
2022/02/26 00:46:07;;;;;;;1.17;0.77;;;5.10;99.90;;;;;;4438956;32;20100;-62
2022/02/26 00:49:49;;;;;;;0.93;0.55;;;5.00;99.90;;;;;;4435989;32;20078;-62
2022/02/26 00:51:19;;;;;;;1.37;0.98;;;5.00;99.90;;;;;;4433366;32;20138;-62
2022/02/26 00:53:44;;;;;;;3.00;1.37;;;5.10;99.90;;;;;;4438901;32;20077;-62
2022/02/26 00:56:10;;;;;;;1.20;1.02;;;5.00;99.90;;;;;;4443796;32;20088;-63
2022/02/26 00:58:35;;;;;;;8.77;2.72;;;5.00;99.90;;;;;;4440461;32;20521;-63
2022/02/26 01:01:01;;;;;;;2.47;1.87;;;5.00;99.90;;;;;;4442378;32;20386;-63
2022/02/26 01:03:26;;;;;;;1.30;1.20;;;5.00;99.90;;;;;;4442328;32;20069;-62
2022/02/26 01:05:52;;;;;;;1.25;1.17;;;4.90;99.90;;;;;;4431058;32;20053;-62
2022/02/26 01:08:17;;;;;;;0.60;0.60;;;4.90;99.90;;;;;;4444710;32;20069;-62
2022/02/26 01:10:43;;;;;;;11.60;4.12;;;4.90;99.90;;;;;;4441136;32;20077;-62
2022/02/26 01:13:08;;;;;;;0.62;0.62;;;4.90;99.90;;;;;;4435652;32;20224;-63
2022/02/26 01:15:34;;;;;;;0.60;0.60;;;5.00;99.90;;;;;;4442553;32;20077;-63
2022/02/26 01:18:00;;;;;;;0.60;0.60;;;5.00;99.90;;;;;;4437244;32;20505;-62
2022/02/26 01:20:25;;;;;;;0.55;0.55;;;5.00;99.90;;;;;;4432745;32;20093;-63
2022/02/26 01:22:51;;;;;;;4.65;0.95;;;5.00;99.90;;;;;;4427600;32;20082;-63
2022/02/26 01:25:16;;;;;;;31.73;1.58;;;5.00;99.90;;;;;;4438104;32;20104;-63
2022/02/26 01:27:42;;;;;;;16.10;1.58;;;5.00;99.90;;;;;;4440003;32;20097;-62
2022/02/26 01:30:08;;;;;;;1.45;1.08;;;4.90;99.90;;;;;;4436607;32;20068;-62
2022/02/26 01:32:35;;;;;;;0.77;0.77;;;4.90;99.90;;;;;;4436639;32;20422;-63
2022/02/26 01:35:01;;;;;;;1.10;0.80;;;4.90;99.90;;;;;;4440310;32;20131;-63
2022/02/26 01:37:26;;;;;;;1.20;1.12;;;5.00;99.90;;;;;;4442867;32;20069;-62
2022/02/26 01:39:51;;;;;;;1.23;0.88;;;5.00;99.90;;;;;;4423973;32;20076;-63
2022/02/26 01:42:20;;;;;;;1.90;1.08;;;5.10;99.90;;;;;;4437216;32;20548;-63
2022/02/26 01:44:48;;;;;;;0.70;0.70;;;5.10;99.90;;;;;;4441372;32;20072;-63
2022/02/26 01:47:14;;;;;;;0.43;0.43;;;5.00;99.90;;;;;;4436578;32;20069;-63
2022/02/26 01:49:40;;;;;;;1.62;0.90;;;5.10;99.90;;;;;;4436331;32;20339;-63
2022/02/26 01:52:06;;;;;;;0.50;0.50;;;5.00;99.90;;;;;;4439976;32;20505;-63
2022/02/26 01:54:32;;;;;;;3.42;1.48;;;5.00;99.90;;;;;;4439393;32;20073;-62
2022/02/26 01:56:57;;;;;;;0.80;0.80;;;5.10;99.90;;;;;;4445456;32;20068;-63
2022/02/26 01:59:23;;;;;;;5.50;1.55;;;5.00;99.90;;;;;;4440946;32;20062;-63
2022/02/26 02:01:48;;;;;;;3.35;1.10;;;5.00;99.90;;;;;;4442500;32;20089;-63
2022/02/26 02:04:14;;;;;;;2.47;0.57;;;5.00;99.90;;;;;;4443561;32;20148;-63
2022/02/26 02:06:41;;;;;;;0.40;0.40;;;5.00;99.90;;;;;;4436776;32;20116;-63
2022/02/26 02:09:07;;;;;;;0.45;0.45;;;5.00;99.90;;;;;;4439466;32;20064;-63
2022/02/26 02:11:35;;;;;;;0.60;0.60;;;5.00;99.90;;;;;;4441273;32;20065;-62
2022/02/26 02:14:00;;;;;;;2.95;1.25;;;5.00;99.90;;;;;;4443667;32;20080;-63
2022/02/26 02:16:26;;;;;;;3.75;1.05;;;5.00;99.90;;;;;;4443003;32;20068;-62
2022/02/26 02:18:52;;;;;;;0.60;0.60;;;5.00;99.90;;;;;;4440414;32;20097;-62
2022/02/26 02:21:18;;;;;;;0.77;0.70;;;5.00;99.90;;;;;;4439797;32;20430;-62
2022/02/26 02:23:44;;;;;;;3.45;2.15;;;4.90;99.90;;;;;;4431749;32;20089;-62
2022/02/26 02:26:10;;;;;;;0.50;0.50;;;5.00;99.90;;;;;;4442337;32;20093;-62
2022/02/26 02:28:35;;;;;;;2.65;1.12;;;5.00;99.90;;;;;;4444610;32;20133;-62
2022/02/26 02:31:01;;;;;;;8.75;1.30;;;4.90;99.90;;;;;;4445105;32;20138;-63
2022/02/26 02:33:27;;;;;;;3.50;1.87;;;4.90;99.90;;;;;;4444165;32;20496;-63
2022/02/26 02:35:52;;;;;;;4.47;2.62;;;4.90;99.90;;;;;;4443025;32;20145;-63
2022/02/26 02:38:18;;;;;;;0.70;0.70;;;5.00;99.90;;;;;;4448188;32;20057;-63
2022/02/26 02:40:46;;;;;;;8.57;1.08;;;5.00;99.90;;;;;;4448892;32;20065;-63
2022/02/26 02:43:13;;;;;;;2.72;1.40;;;5.00;99.90;;;;;;4427535;32;20062;-63
2022/02/26 02:45:39;;;;;;;9.48;3.22;;;5.00;99.90;;;;;;4442717;32;20542;-63
2022/02/26 02:48:05;;;;;;;4.87;1.65;;;5.00;99.90;;;;;;4445141;32;20061;-63
2022/02/26 02:50:31;;;;;;;1.50;1.40;;;5.00;99.90;;;;;;4440833;32;20090;-62
2022/02/26 02:52:57;;;;;;;0.40;0.40;;;5.00;99.90;;;;;;4438526;32;20135;-63
2022/02/26 02:55:23;;;;;;;37.75;3.12;;;5.00;99.90;;;;;;4434209;32;20525;-62
2022/02/26 02:57:50;;;;;;;4.68;1.90;;;5.00;99.90;;;;;;4434987;32;20081;-63
2022/02/26 03:00:17;;;;;;;6.03;1.85;;;5.00;99.90;;;;;;4440856;32;20128;-63
2022/02/26 03:02:43;;;;;;;1.98;1.40;;;5.00;99.90;;;;;;4443180;32;20501;-63
2022/02/26 03:05:10;;;;;;;9.63;1.48;;;5.00;99.90;;;;;;4443348;32;20084;-63
2022/02/26 03:07:36;;;;;;;0.50;0.50;;;5.00;99.90;;;;;;4450122;32;20068;-62
2022/02/26 03:10:04;;;;;;;4.68;2.67;;;4.90;99.90;;;;;;4445645;32;20081;-63
2022/02/26 03:12:30;;;;;;;4.53;1.75;;;5.00;99.90;;;;;;4429095;32;20159;-63
2022/02/26 03:14:56;;;;;;;1.08;1.08;;;5.00;99.90;;;;;;4443749;32;20126;-63
2022/02/26 03:17:21;;;;;;;0.40;0.40;;;5.00;99.90;;;;;;4442318;32;20085;-63
2022/02/26 03:19:49;;;;;;;0.60;0.60;;;5.10;99.90;;;;;;4446476;32;20065;-63
2022/02/26 03:22:16;;;;;;;4.70;1.17;;;5.10;99.90;;;;;;4440270;32;20077;-63
2022/02/26 03:24:42;;;;;;;0.70;0.70;;;5.10;99.90;;;;;;4437649;32;20073;-63
2022/02/26 03:27:08;;;;;;;1.37;1.27;;;5.00;99.90;;;;;;4441018;32;20127;-62
2022/02/26 03:29:33;;;;;;;0.40;0.40;;;5.00;99.90;;;;;;4438497;32;20081;-63
2022/02/26 03:31:59;;;;;;;3.95;0.82;;;4.90;99.90;;;;;;4441746;32;20507;-63
2022/02/26 03:34:24;;;;;;;5.85;1.30;;;4.90;99.90;;;;;;4442499;32;20085;-63
2022/02/26 03:36:51;;;;;;;0.95;0.95;;;4.90;99.90;;;;;;4444103;32;20065;-63
2022/02/26 03:39:18;;;;;;;5.35;2.67;;;4.90;99.90;;;;;;4443103;32;20123;-63
2022/02/26 03:41:44;;;;;;;1.55;1.23;;;5.00;99.90;;;;;;4442804;32;20057;-62
2022/02/26 03:44:10;;;;;;;3.92;2.25;;;5.00;99.90;;;;;;4444281;32;20073;-62
2022/02/26 03:46:36;;;;;;;3.40;1.95;;;5.00;99.90;;;;;;4436571;32;20081;-63
2022/02/26 03:49:03;;;;;;;1.75;1.45;;;5.00;99.90;;;;;;4429201;32;20595;-63
2022/02/26 03:51:29;;;;;;;7.28;1.08;;;4.90;99.90;;;;;;4438262;32;20422;-63
2022/02/26 03:53:54;;;;;;;2.47;1.37;;;4.80;99.90;;;;;;4428840;32;20072;-63
2022/02/26 03:56:20;;;;;;;4.65;0.75;;;4.80;99.90;;;;;;4439878;32;20073;-63
2022/02/26 03:58:49;;;;;;;4.37;1.50;;;4.80;99.90;;;;;;4437918;32;20081;-62
2022/02/26 04:01:15;;;;;;;2.08;0.77;;;4.80;99.90;;;;;;4441159;32;20343;-63
2022/02/26 04:03:40;;;;;;;3.30;2.15;;;4.80;99.90;;;;;;4435953;32;20065;-63
2022/02/26 04:06:06;;;;;;;2.40;1.60;;;4.90;99.90;;;;;;4432852;32;20152;-62
2022/02/26 04:08:32;;;;;;;0.62;0.62;;;4.80;99.90;;;;;;4432919;32;20076;-62
2022/02/26 04:10:57;;;;;;;0.40;0.40;;;4.70;99.90;;;;;;4441657;32;20081;-63
2022/02/26 04:13:23;;;;;;;11.02;3.37;;;4.70;99.90;;;;;;4442948;32;20057;-62
2022/02/26 04:15:48;;;;;;;7.82;2.05;;;4.70;99.90;;;;;;4443246;32;20123;-62
2022/02/26 04:18:14;;;;;;;0.40;0.40;;;4.80;99.90;;;;;;4446904;32;20412;-63
2022/02/26 04:20:39;;;;;;;0.65;0.65;;;4.80;99.90;;;;;;4446915;32;20073;-63
2022/02/26 04:23:04;;;;;;;2.53;1.52;;;4.80;99.90;;;;;;4442502;32;20064;-62
2022/02/26 04:25:30;;;;;;;3.72;1.62;;;4.70;99.90;;;;;;4443175;32;20139;-63
2022/02/26 04:27:55;;;;;;;5.20;2.92;;;4.70;99.90;;;;;;4443389;32;20069;-63
2022/02/26 04:30:21;;;;;;;0.57;0.47;;;4.70;99.90;;;;;;4443196;32;20169;-63
2022/02/26 04:32:47;;;;;;;5.40;1.75;;;4.70;99.90;;;;;;4439888;32;20076;-63
2022/02/26 04:35:12;;;;;;;0.60;0.60;;;4.70;99.90;;;;;;4439087;32;20093;-63
2022/02/26 04:37:38;;;;;;;2.58;1.20;;;4.70;99.90;;;;;;4443131;32;20485;-63
2022/02/26 04:40:04;;;;;;;0.40;0.40;;;4.70;99.90;;;;;;4444153;32;20112;-63
2022/02/26 04:42:30;;;;;;;0.60;0.60;;;4.60;99.90;;;;;;4441803;32;20575;-63
2022/02/26 04:44:55;;;;;;;1.12;0.50;;;4.60;99.90;;;;;;4455310;32;20080;-62
2022/02/26 04:47:21;;;;;;;1.33;1.17;;;4.60;99.90;;;;;;4449181;32;20137;-63
2022/02/26 04:49:46;;;;;;;1.87;1.30;;;4.60;99.90;;;;;;4442123;32;20069;-63
2022/02/26 04:52:12;;;;;;;0.50;0.50;;;4.60;99.90;;;;;;4440662;32;20072;-63
2022/02/26 04:54:37;;;;;;;0.40;0.40;;;4.70;99.90;;;;;;4442399;32;20069;-63
2022/02/26 04:57:03;;;;;;;0.98;0.70;;;4.70;99.90;;;;;;4443316;32;20552;-63
2022/02/26 04:59:29;;;;;;;1.10;1.10;;;4.70;99.90;;;;;;4434674;32;20061;-62
2022/02/26 05:01:54;;;;;;;1.42;1.33;;;4.70;99.90;;;;;;4438187;32;20073;-63
2022/02/26 05:04:20;;;;;;;2.70;1.62;;;4.70;99.90;;;;;;4441506;32;20529;-62
2022/02/26 05:06:45;;;;;;;0.50;0.50;;;4.60;99.90;;;;;;4440029;32;20124;-63
2022/02/26 05:09:11;;;;;;;3.08;1.80;;;4.70;99.90;;;;;;4445872;32;20149;-63
2022/02/26 05:11:36;;;;;;;0.80;0.80;;;4.70;99.90;;;;;;4442309;32;20077;-63
2022/02/26 05:14:02;;;;;;;0.77;0.55;;;4.80;99.90;;;;;;4431518;32;20062;-63
2022/02/26 05:16:28;;;;;;;4.43;2.65;;;4.80;99.90;;;;;;4442127;32;20086;-63
2022/02/26 05:18:53;;;;;;;0.30;0.30;;;4.80;99.90;;;;;;4440199;32;20073;-63
2022/02/26 05:21:19;;;;;;;1.85;1.25;;;4.80;99.90;;;;;;4434187;32;20057;-63
2022/02/26 05:23:44;;;;;;;0.50;0.50;;;4.90;99.90;;;;;;4443091;32;20105;-63
2022/02/26 05:26:12;;;;;;;0.43;0.43;;;4.90;99.90;;;;;;4441656;32;20073;-63
2022/02/26 05:28:38;;;;;;;0.55;0.55;;;4.80;99.90;;;;;;4443365;32;20064;-63
2022/02/26 05:31:04;;;;;;;0.30;0.30;;;4.80;99.90;;;;;;4447154;32;20498;-63
2022/02/26 05:33:29;;;;;;;3.17;1.73;;;4.90;99.90;;;;;;4441010;32;20081;-63
2022/02/26 05:35:55;;;;;;;5.47;1.08;;;4.90;99.90;;;;;;4448090;32;20069;-63
2022/02/26 05:38:21;;;;;;;0.85;0.85;;;4.90;99.90;;;;;;4440887;32;20077;-63
2022/02/26 05:40:46;;;;;;;6.65;1.77;;;4.90;99.90;;;;;;4435004;32;20057;-63
2022/02/26 05:43:11;;;;;;;0.40;0.40;;;4.90;99.90;;;;;;4434214;32;20116;-63
2022/02/26 05:45:37;;;;;;;0.50;0.50;;;4.90;99.90;;;;;;4438939;32;20090;-63
2022/02/26 05:48:03;;;;;;;3.00;1.50;;;4.90;99.90;;;;;;4441377;32;20414;-63
2022/02/26 05:50:28;;;;;;;1.33;1.23;;;4.90;99.90;;;;;;4435997;32;20089;-62
2022/02/26 05:52:54;;;;;;;0.70;0.70;;;4.90;99.90;;;;;;4451972;32;20061;-63
2022/02/26 05:55:19;;;;;;;0.40;0.40;;;5.00;99.90;;;;;;4442140;32;20120;-63
2022/02/26 05:57:45;;;;;;;0.50;0.50;;;5.00;99.90;;;;;;4441006;32;20120;-63
2022/02/26 06:00:11;;;;;;;1.50;1.40;;;5.00;99.90;;;;;;4437388;32;20078;-63
2022/02/26 06:02:36;;;;;;;0.70;0.70;;;4.90;99.90;;;;;;4435328;32;20068;-63
2022/02/26 06:05:03;;;;;;;3.20;1.67;;;5.00;99.90;;;;;;4441857;32;20081;-63
2022/02/26 06:07:29;;;;;;;0.70;0.70;;;5.00;99.90;;;;;;4441570;32;20159;-63
2022/02/26 06:09:55;;;;;;;0.40;0.40;;;5.00;99.90;;;;;;4433429;32;20084;-63
2022/02/26 06:12:20;;;;;;;0.60;0.60;;;5.00;99.90;;;;;;4440041;32;20093;-63
2022/02/26 06:14:46;;;;;;;3.55;1.95;;;5.00;99.90;;;;;;4437615;32;20159;-63
2022/02/26 06:17:12;;;;;;;0.40;0.40;;;5.00;99.90;;;;;;4443110;32;20122;-63
2022/02/26 06:19:37;;;;;;;0.50;0.50;;;5.00;99.90;;;;;;4440302;32;20089;-63
2022/02/26 06:22:03;;;;;;;2.65;1.50;;;5.00;99.90;;;;;;4444766;32;20065;-63
2022/02/26 06:24:29;;;;;;;15.82;1.75;;;5.10;99.90;;;;;;4448407;32;20093;-62
2022/02/26 06:26:54;;;;;;;0.40;0.40;;;5.10;99.90;;;;;;4439275;32;20082;-63
2022/02/26 06:29:20;;;;;;;8.98;1.60;;;5.00;99.90;;;;;;4442366;32;20515;-63
2022/02/26 06:31:45;;;;;;;1.12;1.02;;;4.90;99.90;;;;;;4440605;32;20061;-63
2022/02/26 06:34:10;;;;;;;1.23;0.98;;;5.00;99.90;;;;;;4443403;32;20081;-63
2022/02/26 06:36:38;;;;;;;6.18;1.62;;;5.00;99.90;;;;;;4445397;32;20410;-63
2022/02/26 06:39:05;;;;;;;0.50;0.50;;;5.00;99.90;;;;;;4444836;32;20081;-63
2022/02/26 06:41:30;;;;;;;1.08;0.80;;;5.10;99.90;;;;;;4441198;32;20158;-63
2022/02/26 06:43:57;;;;;;;3.03;1.42;;;5.00;99.90;;;;;;4444329;32;20751;-63
2022/02/26 06:46:23;;;;;;;0.40;0.40;;;5.00;99.90;;;;;;4445369;32;20077;-63
2022/02/26 06:48:49;;;;;;;5.78;2.67;;;5.00;99.90;;;;;;4437455;32;20065;-63
2022/02/26 06:51:14;;;;;;;0.90;0.75;;;5.10;99.90;;;;;;4439563;32;20077;-63
2022/02/26 06:53:40;;;;;;;30.67;1.10;;;5.10;99.90;;;;;;4439931;32;20280;-62
2022/02/26 06:56:06;;;;;;;4.43;0.80;;;5.10;99.90;;;;;;4433862;32;20108;-63
2022/02/26 06:58:31;;;;;;;1.10;1.02;;;5.10;99.90;;;;;;4441082;32;20660;-63
2022/02/26 07:00:57;;;;;;;2.37;1.58;;;5.10;99.90;;;;;;4438697;32;20081;-63
2022/02/26 07:03:22;;;;;;;1.75;0.95;;;5.20;99.90;;;;;;4441956;32;20089;-63
2022/02/26 07:05:48;;;;;;;0.40;0.40;;;5.30;99.90;;;;;;4439743;32;20098;-65
2022/02/26 07:08:13;;;;;;;1.80;1.65;;;5.30;99.90;;;;;;4438714;32;20137;-65
2022/02/26 07:10:39;;;;;;;1.40;1.20;;;5.20;99.90;;;;;;4438331;32;20134;-65
2022/02/26 07:13:05;;;;;;;0.68;0.68;;;5.30;99.90;;;;;;4440715;32;20123;-65
2022/02/26 07:15:31;;;;;;;7.20;1.92;;;5.40;99.90;;;;;;4441936;32;20105;-66
2022/02/26 07:17:57;;;;;;;0.90;0.82;;;5.30;99.90;;;;;;4438854;32;20587;-66
2022/02/26 07:20:22;;;;;;;2.17;1.50;;;5.40;99.90;;;;;;4437995;32;20074;-66
2022/02/26 07:22:48;;;;;;;12.63;1.40;;;5.40;99.90;;;;;;4433749;32;20081;-66
2022/02/26 07:25:13;;;;;;;6.32;1.75;;;5.40;99.90;;;;;;4441995;32;20457;-66
2022/02/26 07:27:38;;;;;;;0.43;0.43;;;5.40;99.90;;;;;;4436687;32;20073;-65
2022/02/26 07:30:06;;;;;;;0.70;0.70;;;5.40;99.90;;;;;;4439115;32;20100;-66
2022/02/26 07:32:32;;;;;;;26.20;1.62;;;5.50;99.90;;;;;;4438708;32;20113;-66
2022/02/26 07:34:59;;;;;;;6.12;2.35;;;5.40;99.90;;;;;;4438386;32;110732;-66
2022/02/26 07:37:25;;;;;;;0.60;0.60;;;5.40;99.90;;;;;;4438271;32;20516;-65
2022/02/26 07:39:50;;;;;;;1.17;1.08;;;5.40;99.90;;;;;;4441674;32;20085;-65
2022/02/26 07:42:16;;;;;;;0.95;0.95;;;5.50;99.90;;;;;;4424629;32;20081;-65
2022/02/26 07:44:42;;;;;;;13.02;3.78;;;5.50;99.90;;;;;;4439384;32;20132;-66
2022/02/26 07:47:07;;;;;;;11.98;4.78;;;5.50;99.90;;;;;;4439197;32;20068;-65
2022/02/26 07:49:33;;;;;;;0.75;0.75;;;5.60;99.90;;;;;;4439908;32;20069;-66
2022/02/26 07:51:58;;;;;;;0.75;0.75;;;5.70;99.90;;;;;;4435784;32;20587;-66
2022/02/26 07:54:24;;;;;;;0.65;0.65;;;5.70;99.90;;;;;;4441105;32;20085;-65
2022/02/26 07:56:49;;;;;;;1.20;1.10;;;5.80;99.90;;;;;;4436471;32;20481;-65
2022/02/26 07:59:14;;;;;;;4.70;2.03;;;5.70;99.90;;;;;;4436730;32;20080;-65
2022/02/26 08:01:40;;;;;;;2.45;0.60;;;5.80;99.90;;;;;;4438272;32;20069;-65
2022/02/26 08:04:07;;;;;;;0.70;0.70;;;5.80;99.90;;;;;;4439054;32;20160;-66
2022/02/26 08:06:32;;;;;;;0.57;0.57;;;5.80;99.90;;;;;;4442454;32;20073;-65
2022/02/26 08:08:58;;;;;;;1.15;1.05;;;5.90;99.90;;;;;;4439063;32;20061;-65
2022/02/26 08:11:29;;;;;;;2.37;1.67;;;5.90;99.90;;;;;;4438677;32;20097;-65
2022/02/26 08:13:55;;;;;;;0.98;0.93;;;5.90;99.90;;;;;;4425938;32;20077;-65
2022/02/26 08:16:23;;;;;;;0.50;0.50;;;5.90;99.90;;;;;;4437841;32;20077;-65
2022/02/26 08:18:49;;;;;;;2.87;0.75;;;5.90;99.90;;;;;;4437433;32;20081;-65
2022/02/26 08:21:14;;;;;;;0.80;0.73;;;6.00;99.90;;;;;;4437642;32;20576;-65
2022/02/26 08:23:40;;;;;;;0.40;0.40;;;6.00;99.90;;;;;;4439973;32;20066;-65
2022/02/26 08:26:06;;;;;;;0.88;0.88;;;6.00;99.90;;;;;;4436744;32;20081;-65
2022/02/26 08:28:31;;;;;;;19.55;1.60;;;6.00;99.90;;;;;;4434209;32;20143;-66
2022/02/26 08:30:57;;;;;;;0.50;0.50;;;5.90;99.90;;;;;;4427635;32;20077;-65
2022/02/26 08:33:23;;;;;;;0.50;0.50;;;6.00;99.90;;;;;;4435643;32;20525;-65
2022/02/26 08:35:48;;;;;;;1.35;1.08;;;5.90;99.90;;;;;;4435221;32;20182;-65
2022/02/26 08:38:14;;;;;;;10.98;2.55;;;6.00;99.90;;;;;;4434966;32;20168;-65
2022/02/26 08:40:39;;;;;;;0.70;0.70;;;6.00;99.90;;;;;;4434169;32;20780;-65
2022/02/26 08:43:05;;;;;;;2.10;1.40;;;6.00;99.90;;;;;;4431775;32;20097;-65
2022/02/26 08:45:30;;;;;;;4.90;3.10;;;6.00;99.90;;;;;;4427945;32;20077;-65
2022/02/26 08:47:56;;;;;;;0.40;0.40;;;6.00;99.90;;;;;;4437379;32;20068;-65
2022/02/26 08:50:22;;;;;;;0.75;0.75;;;6.00;99.90;;;;;;4435223;32;20434;-65
2022/02/26 08:52:48;;;;;;;2.10;1.45;;;6.00;99.90;;;;;;4438274;32;20173;-65
2022/02/26 08:55:14;;;;;;;9.63;1.80;;;6.00;99.90;;;;;;4432175;32;20085;-65
2022/02/26 08:57:39;;;;;;;0.40;0.40;;;6.00;99.90;;;;;;4437060;32;20073;-65
2022/02/26 09:00:08;;;;;;;0.30;0.30;;;6.10;99.90;;;;;;4435525;32;20097;-65
2022/02/26 09:02:34;;;;;;;1.17;1.00;;;6.00;99.90;;;;;;4425756;32;20085;-65
2022/02/26 09:04:59;;;;;;;0.88;0.88;;;6.10;99.90;;;;;;4440838;32;20065;-65
2022/02/26 09:07:24;;;;;;;0.32;0.32;;;6.10;99.90;;;;;;4440624;32;20064;-65
2022/02/26 09:09:51;;;;;;;1.30;1.23;;;6.10;99.90;;;;;;4432602;32;20080;-65
2022/02/26 09:12:17;;;;;;;0.95;0.95;;;6.10;99.90;;;;;;4432944;32;20137;-64
2022/02/26 09:14:43;;;;;;;0.68;0.68;;;6.10;99.90;;;;;;4432743;32;20534;-65
2022/02/26 09:17:08;;;;;;;1.48;0.85;;;6.20;99.90;;;;;;4437089;32;20165;-64
2022/02/26 09:19:36;;;;;;;0.60;0.60;;;6.20;99.90;;;;;;4435515;32;20085;-65
2022/02/26 09:22:04;;;;;;;0.88;0.88;;;6.20;99.90;;;;;;4435047;32;20419;-65
2022/02/26 09:24:32;;;;;;;0.80;0.80;;;6.20;99.90;;;;;;4430517;32;20085;-65
2022/02/26 09:26:58;;;;;;;0.40;0.40;;;6.20;99.90;;;;;;4437183;32;20065;-65
2022/02/26 09:29:23;;;;;;;0.50;0.50;;;6.20;99.90;;;;;;4432751;32;20490;-65
2022/02/26 09:31:50;;;;;;;0.73;0.70;;;6.30;99.90;;;;;;4432442;32;20082;-65
2022/02/26 09:34:17;;;;;;;0.82;0.82;;;6.30;99.90;;;;;;4430517;32;20073;-64
2022/02/26 09:36:44;;;;;;;0.85;0.85;;;6.20;99.90;;;;;;4431339;32;20069;-64
2022/02/26 09:39:09;;;;;;;12.75;1.30;;;6.20;99.90;;;;;;4440103;32;20089;-65
2022/02/26 09:41:37;;;;;;;1.95;1.60;;;6.30;99.90;;;;;;4439029;32;20141;-65
2022/02/26 09:44:04;;;;;;;0.50;0.50;;;6.40;99.90;;;;;;4441150;32;20064;-65
2022/02/26 09:46:29;;;;;;;5.25;0.90;;;6.50;99.90;;;;;;4435651;32;20065;-65
2022/02/26 09:48:55;;;;;;;0.60;0.60;;;6.50;99.90;;;;;;4442517;32;20078;-65
2022/02/26 09:51:21;;;;;;;0.60;0.60;;;6.50;99.90;;;;;;4436108;32;20085;-65
2022/02/26 09:53:47;;;;;;;0.40;0.40;;;6.50;99.90;;;;;;4432230;32;20085;-66
2022/02/26 09:56:12;;;;;;;1.02;0.93;;;6.50;99.90;;;;;;4443550;32;20167;-66
2022/02/26 09:58:39;;;;;;;0.40;0.40;;;6.40;99.90;;;;;;4447291;32;20065;-65
2022/02/26 10:01:04;;;;;;;20.85;1.33;;;6.40;99.90;;;;;;4445952;32;20529;-65
2022/02/26 10:03:33;;;;;;;0.40;0.40;;;6.50;99.90;;;;;;4432580;32;20084;-65
2022/02/26 10:06:11;;;;;;;0.73;0.68;;;6.50;99.90;;;;;;4436970;32;20064;-65
2022/02/26 10:08:44;;;;;;;18.35;1.55;;;6.50;99.90;;;;;;4437564;32;20073;-65
2022/02/26 10:11:31;;;;;;;0.85;0.85;;;6.50;99.90;;;;;;4436206;32;20082;-65
2022/02/26 10:14:02;;;;;;;0.85;0.62;;;6.70;99.90;;;;;;4440821;32;20073;-65
2022/02/26 10:16:56;;;;;;;1.73;0.55;;;6.70;99.90;;;;;;4432096;32;20073;-65
2022/02/26 10:19:24;;;;;;;14.43;0.70;;;6.70;99.90;;;;;;4433720;32;20073;-65
2022/02/26 10:21:51;;;;;;;0.70;0.70;;;6.70;99.90;;;;;;4434305;32;20092;-65
2022/02/26 10:24:17;;;;;;;0.70;0.70;;;6.80;99.90;;;;;;4436097;32;20520;-66
2022/02/26 10:27:03;;;;;;;0.40;0.40;;;6.90;99.90;;;;;;4431441;32;20061;-65
2022/02/26 10:29:29;;;;;;;0.68;0.68;;;6.90;99.90;;;;;;4437960;32;20065;-66
2022/02/26 10:31:58;;;;;;;3.72;1.17;;;6.90;99.90;;;;;;4429202;32;20069;-65
2022/02/26 10:34:35;;;;;;;1.95;0.90;;;7.00;99.90;;;;;;4438328;32;20488;-65
2022/02/26 10:37:04;;;;;;;5.20;0.85;;;7.10;99.90;;;;;;4437573;32;20469;-64
2022/02/26 10:39:34;;;;;;;1.02;1.02;;;7.10;99.90;;;;;;4444654;32;20072;-65
2022/02/26 10:42:00;;;;;;;0.40;0.40;;;7.20;99.90;;;;;;4436143;32;20525;-66
2022/02/26 10:44:26;;;;;;;1.30;1.23;;;7.20;99.90;;;;;;4433296;32;20069;-66
2022/02/26 10:46:51;;;;;;;0.55;0.45;;;7.10;99.90;;;;;;4449160;32;20396;-66
2022/02/26 10:49:19;;;;;;;0.40;0.40;;;7.00;99.90;;;;;;4440645;32;20068;-65
2022/02/26 10:51:46;;;;;;;17.20;0.98;;;7.00;99.90;;;;;;4429740;32;20061;-65
2022/02/26 10:54:27;;;;;;;1.12;0.73;;;6.90;99.90;;;;;;4436761;32;20370;-65
2022/02/26 10:57:00;;;;;;;0.43;0.43;;;7.00;99.90;;;;;;4444223;32;20069;-65
2022/02/26 10:59:29;;;;;;;1.20;0.85;;;7.00;99.90;;;;;;4441887;32;20072;-65
2022/02/26 11:02:21;;;;;;;0.55;0.55;;;7.00;99.90;;;;;;4441943;32;20061;-65
2022/02/26 11:04:47;;;;;;;1.37;0.73;;;7.00;99.90;;;;;;4428253;32;20131;-65
2022/02/26 11:07:13;;;;;;;0.45;0.45;;;7.00;99.90;;;;;;4442987;32;20073;-65
2022/02/26 11:09:40;;;;;;;0.43;0.43;;;7.10;99.90;;;;;;4442723;32;20548;-65
2022/02/26 11:12:07;;;;;;;1.50;0.62;;;7.20;99.90;;;;;;4444956;32;20563;-65
2022/02/26 11:14:35;;;;;;;0.40;0.40;;;7.30;99.90;;;;;;4447937;32;20084;-65
2022/02/26 11:17:03;;;;;;;0.80;0.57;;;7.20;99.90;;;;;;4448610;32;20144;-65
2022/02/26 11:19:29;;;;;;;0.40;0.40;;;7.30;99.90;;;;;;4443017;32;20473;-65
2022/02/26 11:21:57;;;;;;;0.57;0.55;;;7.30;99.90;;;;;;4443040;32;20057;-65
2022/02/26 11:24:23;;;;;;;1.70;1.33;;;7.20;99.90;;;;;;4442866;32;20438;-65
2022/02/26 11:26:49;;;;;;;1.20;0.88;;;7.30;99.90;;;;;;4437446;32;20078;-65
2022/02/26 11:29:17;;;;;;;1.02;0.93;;;7.40;99.90;;;;;;4445662;32;20068;-65
2022/02/26 11:32:05;;;;;;;0.40;0.40;;;7.40;99.90;;;;;;4445027;32;20120;-65
2022/02/26 11:34:34;;;;;;;0.50;0.50;;;7.50;99.90;;;;;;4417905;32;20140;-65
2022/02/26 11:37:18;;;;;;;0.82;0.82;;;7.50;99.90;;;;;;4441817;32;20138;-65
2022/02/26 11:39:46;;;;;;;2.72;1.35;;;7.70;99.90;;;;;;4444415;32;20072;-65
2022/02/26 11:42:16;;;;;;;0.43;0.43;;;7.90;99.90;;;;;;4446461;32;20422;-65
2022/02/26 11:44:44;;;;;;;1.45;0.77;;;7.90;99.90;;;;;;4446634;32;20065;-65
2022/02/26 11:47:15;;;;;;;9.70;0.82;;;7.80;99.90;;;;;;4431557;32;20057;-66
2022/02/26 11:50:03;;;;;;;0.73;0.73;;;7.80;99.90;;;;;;4447395;32;20064;-67
2022/02/26 11:52:50;;;;;;;0.43;0.43;;;7.80;99.90;;;;;;4434876;32;20118;-67
2022/02/26 11:55:40;;;;;;;1.27;0.80;;;8.00;99.90;;;;;;4435022;32;20135;-66
2022/02/26 11:58:10;;;;;;;0.73;0.73;;;8.00;99.90;;;;;;4439519;32;20146;-66
2022/02/26 12:00:45;;;;;;;2.53;1.90;;;7.90;99.90;;;;;;4438379;32;20069;-64
2022/02/26 12:03:30;;;;;;;0.45;0.45;;;7.70;99.90;;;;;;4440688;32;20626;-64
2022/02/26 12:06:16;;;;;;;0.93;0.85;;;7.70;99.90;;;;;;4443965;32;20101;-65
2022/02/26 12:08:44;;;;;;;12.45;0.60;;;7.60;99.90;;;;;;4442448;32;20074;-65
2022/02/26 12:11:22;;;;;;;0.50;0.50;;;7.60;99.90;;;;;;4443477;32;20500;-65
2022/02/26 12:13:55;;;;;;;2.12;0.60;;;7.50;99.90;;;;;;4442390;32;20093;-65
2022/02/26 12:16:22;;;;;;;0.70;0.70;;;7.50;99.90;;;;;;4432437;32;20077;-65
2022/02/26 12:18:55;;;;;;;0.60;0.60;;;7.60;99.90;;;;;;4438458;32;20081;-65
2022/02/26 12:21:22;;;;;;;0.50;0.50;;;7.60;99.90;;;;;;4441760;32;20082;-65
2022/02/26 12:24:13;;;;;;;2.17;1.58;;;7.80;99.90;;;;;;4441118;32;20056;-65
2022/02/26 12:26:40;;;;;;;0.52;0.52;;;7.90;99.90;;;;;;4432606;32;20089;-65
2022/02/26 12:29:06;;;;;;;0.40;0.40;;;8.00;99.90;;;;;;4442372;32;20074;-65
2022/02/26 12:31:41;;;;;;;0.50;0.50;;;8.10;99.90;;;;;;4440196;32;20101;-65
2022/02/26 12:34:11;;;;;;;6.72;0.88;;;8.10;99.90;;;;;;4430919;32;20132;-65
2022/02/26 12:36:53;;;;;;;0.83;0.70;;;8.20;99.90;;;;;;4436187;32;20069;-65
2022/02/26 12:39:30;;;;;;;1.17;1.05;;;8.10;99.90;;;;;;4440949;32;20057;-65
2022/02/26 12:41:55;;;;;;;2.20;0.88;;;8.10;99.90;;;;;;4443818;32;20069;-65
2022/02/26 12:44:23;;;;;;;2.95;1.15;;;7.90;99.90;;;;;;4443832;32;20060;-65
2022/02/26 12:46:49;;;;;;;0.77;0.77;;;7.90;99.90;;;;;;4442403;32;20083;-65
2022/02/26 12:49:16;;;;;;;0.40;0.40;;;7.90;99.90;;;;;;4439131;32;20089;-65
2022/02/26 12:51:42;;;;;;;2.17;1.12;;;7.80;99.90;;;;;;4421539;32;20061;-65
2022/02/26 12:54:10;;;;;;;0.40;0.40;;;7.80;99.90;;;;;;4444283;32;20148;-65
2022/02/26 12:56:37;;;;;;;0.40;0.40;;;7.60;99.90;;;;;;4443642;32;20050;-65